createdAt,value
2017-10-30T00:01:06.754Z,3.50
2017-10-30T00:03:33.131Z,3.50
2017-10-30T00:06:00.227Z,3.40
2017-10-30T00:08:26.626Z,3.40
2017-10-30T00:10:53.690Z,3.30
2017-10-30T00:13:20.078Z,3.30
2017-10-30T00:15:46.463Z,3.40
2017-10-30T00:18:13.832Z,3.40
2017-10-30T00:20:40.202Z,3.40
2017-10-30T00:23:06.555Z,3.40
2017-10-30T00:25:33.662Z,3.20
2017-10-30T00:28:00.020Z,3.20
2017-10-30T00:30:27.164Z,3.20
2017-10-30T00:32:54.250Z,3.10
2017-10-30T00:35:20.583Z,3.10
2017-10-30T00:37:47.911Z,3.10
2017-10-30T00:40:15.066Z,3.10
2017-10-30T00:42:41.743Z,3.00
2017-10-30T00:45:08.102Z,3.10
2017-10-30T00:47:35.365Z,3.10
2017-10-30T00:50:02.472Z,3.00
2017-10-30T00:52:28.860Z,2.90
2017-10-30T00:54:55.926Z,2.90
2017-10-30T00:57:22.278Z,2.90
2017-10-30T00:59:48.618Z,2.90
2017-10-30T01:02:15.982Z,2.90
2017-10-30T01:04:42.313Z,3.00
2017-10-30T01:07:08.682Z,3.00
2017-10-30T01:09:35.767Z,3.00
2017-10-30T01:12:02.123Z,3.00
2017-10-30T01:14:28.474Z,3.00
2017-10-30T01:16:54.812Z,3.00
2017-10-30T01:19:21.894Z,2.90
2017-10-30T01:21:48.225Z,2.90
2017-10-30T01:24:14.607Z,2.90
2017-10-30T01:26:40.930Z,2.90
2017-10-30T01:29:07.290Z,2.90
2017-10-30T01:31:34.374Z,2.90
2017-10-30T01:34:00.732Z,2.90
2017-10-30T01:36:27.083Z,2.90
2017-10-30T01:38:53.450Z,2.80
2017-10-30T01:41:19.775Z,2.80
2017-10-30T01:43:47.330Z,2.80
2017-10-30T01:46:13.662Z,2.80
2017-10-30T01:48:40.023Z,2.80
2017-10-30T01:51:06.371Z,2.70
2017-10-30T01:53:32.713Z,2.70
2017-10-30T01:55:59.078Z,2.70
2017-10-30T01:58:26.230Z,2.70
2017-10-30T02:00:52.615Z,2.60
2017-10-30T02:03:18.981Z,2.60
2017-10-30T02:05:46.071Z,2.60
2017-10-30T02:08:12.470Z,2.60
2017-10-30T02:10:39.575Z,2.70
2017-10-30T02:13:05.950Z,2.70
2017-10-30T02:15:33.034Z,2.70
2017-10-30T02:17:59.422Z,2.70
2017-10-30T02:20:26.621Z,2.70
2017-10-30T02:22:52.994Z,2.70
2017-10-30T02:25:20.143Z,2.70
2017-10-30T02:27:47.262Z,2.70
2017-10-30T02:30:13.638Z,2.60
2017-10-30T02:32:40.775Z,2.60
2017-10-30T02:35:07.871Z,2.60
2017-10-30T02:37:34.227Z,2.70
2017-10-30T02:40:00.616Z,2.70
2017-10-30T02:42:26.988Z,2.70
2017-10-30T02:44:53.375Z,2.80
2017-10-30T02:47:19.791Z,2.80
2017-10-30T02:49:47.911Z,2.90
2017-10-30T02:52:14.297Z,2.90
2017-10-30T02:54:41.465Z,2.90
2017-10-30T02:57:08.890Z,2.90
2017-10-30T02:59:36.532Z,3.10
2017-10-30T03:02:02.906Z,3.00
2017-10-30T03:04:29.311Z,3.20
2017-10-30T03:06:56.433Z,3.30
2017-10-30T03:09:22.859Z,3.30
2017-10-30T03:11:49.231Z,3.30
2017-10-30T03:14:16.353Z,3.40
2017-10-30T03:16:42.723Z,3.30
2017-10-30T03:19:10.467Z,3.40
2017-10-30T03:21:37.601Z,3.40
2017-10-30T03:24:03.983Z,3.40
2017-10-30T03:26:30.359Z,3.40
2017-10-30T03:28:56.750Z,3.50
2017-10-30T03:31:23.130Z,3.60
2017-10-30T03:33:49.490Z,3.60
2017-10-30T03:36:16.570Z,3.50
2017-10-30T03:38:42.951Z,3.50
2017-10-30T03:41:10.091Z,3.60
2017-10-30T03:43:37.228Z,3.60
2017-10-30T03:46:03.602Z,3.60
2017-10-30T03:48:29.988Z,3.60
2017-10-30T03:50:56.355Z,3.60
2017-10-30T03:53:23.478Z,3.70
2017-10-30T03:55:49.853Z,3.70
2017-10-30T03:58:16.227Z,3.70
2017-10-30T04:00:42.608Z,3.80
2017-10-30T04:03:08.997Z,3.80
2017-10-30T04:05:36.122Z,3.70
2017-10-30T04:08:02.502Z,3.70
2017-10-30T04:10:29.595Z,3.80
2017-10-30T04:12:55.967Z,3.70
2017-10-30T04:15:23.103Z,3.70
2017-10-30T04:17:50.194Z,3.70
2017-10-30T04:20:16.535Z,3.70
2017-10-30T04:22:42.901Z,3.80
2017-10-30T04:25:09.247Z,3.70
2017-10-30T04:27:35.568Z,3.60
2017-10-30T04:30:02.018Z,3.60
2017-10-30T04:32:28.391Z,3.60
2017-10-30T04:34:54.715Z,3.60
2017-10-30T04:37:21.036Z,3.70
2017-10-30T04:39:47.404Z,3.60
2017-10-30T04:42:13.743Z,3.60
2017-10-30T04:44:40.067Z,3.60
2017-10-30T04:47:06.415Z,3.60
2017-10-30T04:49:33.134Z,3.60
2017-10-30T04:51:59.470Z,3.60
2017-10-30T04:54:25.827Z,3.60
2017-10-30T04:56:52.166Z,3.60
2017-10-30T04:59:19.274Z,3.60
2017-10-30T05:01:45.611Z,3.60
2017-10-30T05:04:11.938Z,3.70
2017-10-30T05:06:38.262Z,3.70
2017-10-30T05:09:04.611Z,3.70
2017-10-30T05:11:30.946Z,3.70
2017-10-30T05:13:57.274Z,3.70
2017-10-30T05:16:23.635Z,3.60
2017-10-30T05:18:50.696Z,3.60
2017-10-30T05:21:17.035Z,3.60
2017-10-30T05:23:43.386Z,3.70
2017-10-30T05:26:09.735Z,3.70
2017-10-30T05:28:36.187Z,3.70
2017-10-30T05:31:02.544Z,3.70
2017-10-30T05:33:29.626Z,3.70
2017-10-30T05:35:55.955Z,3.70
2017-10-30T05:38:22.300Z,3.80
2017-10-30T05:40:48.667Z,3.80
2017-10-30T05:43:15.799Z,3.80
2017-10-30T05:45:42.138Z,3.80
2017-10-30T05:48:08.496Z,3.80
2017-10-30T05:50:34.823Z,3.90
2017-10-30T05:53:01.928Z,3.90
2017-10-30T05:55:28.250Z,3.90
2017-10-30T05:57:54.600Z,3.90
2017-10-30T06:00:20.947Z,3.90
2017-10-30T06:02:48.014Z,3.70
2017-10-30T06:05:14.371Z,3.70
2017-10-30T06:07:40.712Z,3.70
2017-10-30T06:10:07.034Z,3.80
2017-10-30T06:12:33.378Z,3.90
2017-10-30T06:14:59.725Z,4.00
2017-10-30T06:17:26.054Z,3.90
2017-10-30T06:19:52.407Z,3.90
2017-10-30T06:22:19.508Z,3.80
2017-10-30T06:24:45.833Z,3.80
2017-10-30T06:27:12.159Z,3.90
2017-10-30T06:29:38.522Z,3.80
2017-10-30T06:32:04.851Z,3.90
2017-10-30T06:34:31.187Z,3.90
2017-10-30T06:36:57.526Z,3.90
2017-10-30T06:39:24.880Z,3.90
2017-10-30T06:41:51.198Z,4.00
2017-10-30T06:44:17.562Z,4.00
2017-10-30T06:46:44.634Z,4.10
2017-10-30T06:49:10.991Z,4.10
2017-10-30T06:51:37.339Z,4.10
2017-10-30T06:54:03.704Z,4.10
2017-10-30T06:56:30.786Z,4.10
2017-10-30T06:58:57.150Z,4.10
2017-10-30T07:01:23.495Z,4.10
2017-10-30T07:03:49.835Z,4.20
2017-10-30T07:06:16.963Z,4.20
2017-10-30T07:08:43.282Z,4.20
2017-10-30T07:13:42.365Z,4.20
2017-10-30T07:16:09.032Z,4.20
2017-10-30T07:18:35.461Z,4.30
2017-10-30T07:21:01.835Z,4.40
2017-10-30T07:23:28.951Z,4.40
2017-10-30T07:25:55.307Z,4.40
2017-10-30T07:28:22.398Z,4.40
2017-10-30T07:30:48.731Z,4.40
2017-10-30T07:33:15.081Z,4.30
2017-10-30T07:35:41.406Z,4.20
2017-10-30T07:38:07.735Z,4.20
2017-10-30T07:40:34.091Z,4.20
2017-10-30T07:43:00.456Z,4.30
2017-10-30T07:45:26.791Z,4.30
2017-10-30T07:47:53.187Z,4.30
2017-10-30T07:50:19.540Z,4.30
2017-10-30T07:52:45.924Z,4.50
2017-10-30T07:55:12.379Z,4.60
2017-10-30T07:57:38.827Z,4.50
2017-10-30T08:00:05.932Z,4.70
2017-10-30T08:02:32.311Z,4.70
2017-10-30T08:04:59.435Z,4.80
2017-10-30T08:07:25.792Z,4.90
2017-10-30T08:09:53.922Z,5.10
2017-10-30T08:12:20.294Z,5.10
2017-10-30T08:14:47.403Z,5.10
2017-10-30T08:17:13.810Z,5.10
2017-10-30T08:19:40.176Z,5.10
2017-10-30T08:22:06.543Z,5.20
2017-10-30T08:24:32.940Z,5.20
2017-10-30T08:26:59.311Z,5.00
2017-10-30T08:29:25.683Z,5.00
2017-10-30T08:31:52.108Z,5.00
2017-10-30T08:34:18.491Z,5.10
2017-10-30T08:36:46.611Z,5.00
2017-10-30T08:39:13.054Z,5.00
2017-10-30T08:41:39.466Z,5.00
2017-10-30T08:44:06.638Z,5.10
2017-10-30T08:46:33.018Z,5.10
2017-10-30T08:49:00.156Z,5.10
2017-10-30T08:51:27.298Z,5.10
2017-10-30T08:53:54.440Z,5.10
2017-10-30T08:56:20.875Z,5.10
2017-10-30T08:58:47.246Z,5.10
2017-10-30T09:01:13.642Z,5.00
2017-10-30T09:03:40.775Z,5.20
2017-10-30T09:06:07.173Z,5.20
2017-10-30T09:08:33.534Z,5.40
2017-10-30T09:10:59.882Z,5.20
2017-10-30T09:13:26.400Z,5.30
2017-10-30T09:15:52.837Z,5.60
2017-10-30T09:18:19.229Z,5.80
2017-10-30T09:20:45.634Z,6.10
2017-10-30T09:23:12.015Z,6.10
2017-10-30T09:25:38.398Z,6.10
2017-10-30T09:28:10.051Z,6.00
2017-10-30T09:30:36.469Z,6.20
2017-10-30T09:33:03.611Z,6.60
2017-10-30T09:35:30.744Z,6.80
2017-10-30T09:37:57.246Z,6.80
2017-10-30T09:40:23.626Z,6.80
2017-10-30T09:42:49.987Z,6.80
2017-10-30T09:45:16.443Z,7.10
2017-10-30T09:47:42.818Z,7.20
2017-10-30T09:50:09.207Z,7.20
2017-10-30T09:52:35.579Z,7.30
2017-10-30T09:55:01.946Z,6.90
2017-10-30T09:57:28.338Z,6.40
2017-10-30T09:59:54.711Z,6.20
2017-10-30T10:02:21.116Z,6.40
2017-10-30T10:04:48.246Z,6.70
2017-10-30T10:07:14.609Z,6.70
2017-10-30T10:09:41.992Z,6.40
2017-10-30T10:12:08.354Z,6.10
2017-10-30T10:14:34.750Z,5.90
2017-10-30T10:17:01.158Z,5.90
2017-10-30T10:19:27.555Z,6.00
2017-10-30T10:21:53.922Z,6.10
2017-10-30T10:24:20.306Z,6.20
2017-10-30T10:26:47.762Z,6.40
2017-10-30T10:29:14.171Z,6.60
2017-10-30T10:31:40.518Z,6.70
2017-10-30T10:34:06.907Z,6.90
2017-10-30T10:36:33.266Z,7.20
2017-10-30T10:38:59.729Z,7.20
2017-10-30T10:41:26.167Z,7.10
2017-10-30T10:43:52.572Z,7.00
2017-10-30T10:46:19.016Z,6.90
2017-10-30T10:48:45.400Z,7.00
2017-10-30T10:51:11.770Z,7.00
2017-10-30T10:53:38.127Z,7.00
2017-10-30T10:56:04.482Z,6.90
2017-10-30T10:58:31.580Z,6.60
2017-10-30T11:00:57.945Z,6.60
2017-10-30T11:03:25.568Z,6.50
2017-10-30T11:05:52.074Z,6.30
2017-10-30T11:08:19.470Z,6.20
2017-10-30T11:10:45.858Z,6.10
2017-10-30T11:13:12.198Z,6.10
2017-10-30T11:15:38.554Z,6.10
2017-10-30T11:18:04.935Z,6.20
2017-10-30T11:20:33.038Z,6.40
2017-10-30T11:22:59.405Z,6.40
2017-10-30T11:25:25.771Z,6.40
2017-10-30T11:27:52.850Z,6.20
2017-10-30T11:30:19.231Z,6.20
2017-10-30T11:32:45.586Z,6.30
2017-10-30T11:35:11.962Z,6.20
2017-10-30T11:37:38.306Z,6.20
2017-10-30T11:40:04.643Z,6.10
2017-10-30T11:42:31.003Z,6.00
2017-10-30T11:44:57.935Z,6.00
2017-10-30T11:47:25.031Z,6.40
2017-10-30T11:49:51.351Z,6.40
2017-10-30T11:52:17.690Z,6.60
2017-10-30T11:54:44.058Z,6.90
2017-10-30T11:57:10.414Z,7.10
2017-10-30T11:59:37.900Z,7.50
2017-10-30T12:02:04.283Z,7.50
2017-10-30T12:04:30.603Z,7.80
2017-10-30T12:06:56.950Z,8.00
2017-10-30T12:09:25.118Z,8.30
2017-10-30T12:11:52.182Z,8.20
2017-10-30T12:14:19.302Z,8.00
2017-10-30T12:16:45.675Z,8.00
2017-10-30T12:19:12.003Z,7.60
2017-10-30T12:21:38.348Z,7.30
2017-10-30T12:24:04.706Z,7.20
2017-10-30T12:26:31.030Z,7.10
2017-10-30T12:28:57.370Z,7.00
2017-10-30T12:31:23.719Z,6.90
2017-10-30T12:33:50.082Z,7.00
2017-10-30T12:36:16.395Z,6.90
2017-10-30T12:38:42.750Z,6.70
2017-10-30T12:41:09.096Z,6.90
2017-10-30T12:43:36.455Z,7.00
2017-10-30T12:46:02.888Z,7.10
2017-10-30T12:48:29.226Z,7.10
2017-10-30T12:50:55.555Z,7.10
2017-10-30T12:53:21.894Z,6.90
2017-10-30T12:55:49.183Z,7.00
2017-10-30T12:58:16.323Z,6.80
2017-10-30T13:00:42.694Z,6.80
2017-10-30T13:03:09.055Z,6.90
2017-10-30T13:05:35.396Z,6.80
2017-10-30T13:08:01.776Z,6.60
2017-10-30T13:10:29.204Z,6.60
2017-10-30T13:12:56.303Z,6.70
2017-10-30T13:15:22.717Z,6.70
2017-10-30T13:17:49.067Z,6.90
2017-10-30T13:20:15.433Z,6.80
2017-10-30T13:22:41.774Z,6.80
2017-10-30T13:25:08.135Z,6.80
2017-10-30T13:27:34.488Z,6.90
2017-10-30T13:30:00.802Z,6.80
2017-10-30T13:32:27.162Z,6.80
2017-10-30T13:34:53.483Z,6.90
2017-10-30T13:37:19.828Z,6.90
2017-10-30T13:39:46.161Z,6.80
2017-10-30T13:42:12.519Z,6.70
2017-10-30T13:44:38.844Z,6.60
2017-10-30T13:47:05.192Z,6.60
2017-10-30T13:49:32.246Z,6.40
2017-10-30T13:51:59.307Z,6.30
2017-10-30T13:54:25.657Z,6.30
2017-10-30T13:56:52.723Z,6.20
2017-10-30T13:59:19.060Z,6.20
2017-10-30T14:01:45.387Z,6.30
2017-10-30T14:04:11.727Z,6.40
2017-10-30T14:06:38.051Z,6.40
2017-10-30T14:09:04.409Z,6.50
2017-10-30T14:11:32.486Z,6.70
2017-10-30T14:13:59.558Z,6.90
2017-10-30T14:16:25.888Z,6.90
2017-10-30T14:18:52.266Z,6.80
2017-10-30T14:21:18.634Z,7.00
2017-10-30T14:23:45.719Z,6.90
2017-10-30T14:26:12.060Z,6.90
2017-10-30T14:28:38.456Z,6.90
2017-10-30T14:31:04.814Z,7.00
2017-10-30T14:33:31.929Z,6.80
2017-10-30T14:35:58.292Z,6.80
2017-10-30T14:38:24.655Z,6.70
2017-10-30T14:40:51.045Z,6.60
2017-10-30T14:43:17.465Z,6.60
2017-10-30T14:45:43.827Z,6.50
2017-10-30T14:48:10.216Z,6.70
2017-10-30T14:50:36.594Z,6.80
2017-10-30T14:53:02.942Z,6.80
2017-10-30T14:55:29.357Z,6.70
2017-10-30T14:57:55.783Z,6.60
2017-10-30T15:00:27.394Z,6.60
2017-10-30T15:02:53.793Z,6.50
2017-10-30T15:05:20.162Z,6.50
2017-10-30T15:07:49.839Z,6.60
2017-10-30T15:10:16.219Z,6.60
2017-10-30T15:12:42.571Z,6.50
2017-10-30T15:15:08.914Z,6.40
2017-10-30T15:17:35.310Z,6.50
2017-10-30T15:20:01.744Z,6.40
2017-10-30T15:22:28.128Z,6.40
2017-10-30T15:24:54.532Z,6.40
2017-10-30T15:27:20.926Z,6.40
2017-10-30T15:29:47.273Z,6.30
2017-10-30T15:32:13.671Z,6.30
2017-10-30T15:34:40.781Z,6.20
2017-10-30T15:37:07.138Z,6.20
2017-10-30T15:39:34.259Z,6.10
2017-10-30T15:42:00.622Z,6.10
2017-10-30T15:44:27.730Z,6.00
2017-10-30T15:46:54.086Z,6.00
2017-10-30T15:49:20.464Z,6.10
2017-10-30T15:51:46.823Z,6.10
2017-10-30T15:54:13.202Z,6.10
2017-10-30T15:56:40.322Z,6.20
2017-10-30T15:59:06.687Z,6.20
2017-10-30T16:01:33.783Z,6.10
2017-10-30T16:04:00.114Z,6.10
2017-10-30T16:06:26.461Z,5.90
2017-10-30T16:08:52.809Z,5.90
2017-10-30T16:11:20.922Z,5.80
2017-10-30T16:13:47.265Z,5.70
2017-10-30T16:16:13.574Z,5.90
2017-10-30T16:18:39.930Z,5.80
2017-10-30T16:21:06.258Z,5.90
2017-10-30T16:23:32.594Z,5.90
2017-10-30T16:25:59.662Z,5.80
2017-10-30T16:28:26.005Z,5.80
2017-10-30T16:30:52.368Z,5.90
2017-10-30T16:33:18.723Z,5.90
2017-10-30T16:35:45.071Z,6.00
2017-10-30T16:38:11.418Z,5.90
2017-10-30T16:40:37.778Z,5.90
2017-10-30T16:43:04.909Z,5.80
2017-10-30T16:45:32.023Z,5.70
2017-10-30T16:47:58.400Z,5.60
2017-10-30T16:50:25.505Z,5.80
2017-10-30T16:52:51.861Z,5.70
2017-10-30T16:55:18.230Z,5.80
2017-10-30T16:57:44.582Z,5.70
2017-10-30T17:00:10.963Z,5.80
2017-10-30T17:02:38.043Z,5.70
2017-10-30T17:05:04.399Z,5.60
2017-10-30T17:07:30.742Z,5.80
2017-10-30T17:09:57.070Z,5.80
2017-10-30T17:12:23.406Z,5.90
2017-10-30T17:14:49.726Z,5.80
2017-10-30T17:17:16.066Z,5.80
2017-10-30T17:19:42.387Z,5.70
2017-10-30T17:22:09.732Z,5.70
2017-10-30T17:24:36.066Z,5.60
2017-10-30T17:27:02.470Z,5.60
2017-10-30T17:29:28.794Z,5.60
2017-10-30T17:31:55.116Z,5.70
2017-10-30T17:34:22.222Z,5.20
2017-10-30T17:36:48.586Z,5.50
2017-10-30T17:39:15.704Z,5.50
2017-10-30T17:41:42.036Z,5.50
2017-10-30T17:44:08.379Z,5.50
2017-10-30T17:46:34.711Z,5.50
2017-10-30T17:49:01.075Z,5.50
2017-10-30T17:51:27.402Z,5.50
2017-10-30T17:53:53.733Z,5.70
2017-10-30T17:56:20.066Z,5.60
2017-10-30T17:58:46.419Z,5.60
2017-10-30T18:01:12.771Z,5.60
2017-10-30T18:03:39.111Z,5.60
2017-10-30T18:06:05.490Z,5.70
2017-10-30T18:08:31.854Z,5.70
2017-10-30T18:10:58.186Z,5.70
2017-10-30T18:13:24.546Z,5.60
2017-10-30T18:15:51.883Z,5.60
2017-10-30T18:18:18.231Z,5.60
2017-10-30T18:20:44.561Z,5.60
2017-10-30T18:23:10.930Z,5.60
2017-10-30T18:25:37.255Z,5.60
2017-10-30T18:28:03.594Z,5.60
2017-10-30T18:30:29.932Z,5.60
2017-10-30T18:32:56.271Z,5.70
2017-10-30T18:35:22.646Z,5.70
2017-10-30T18:37:48.984Z,5.70
2017-10-30T18:40:16.079Z,5.80
2017-10-30T18:42:42.423Z,5.70
2017-10-30T18:45:08.746Z,5.60
2017-10-30T18:47:35.087Z,5.50
2017-10-30T18:50:01.478Z,5.60
2017-10-30T18:52:27.809Z,5.60
2017-10-30T18:54:54.170Z,5.60
2017-10-30T18:57:23.946Z,5.60
2017-10-30T18:59:50.272Z,5.70
2017-10-30T19:02:16.602Z,5.60
2017-10-30T19:04:42.951Z,5.60
2017-10-30T19:07:09.307Z,5.70
2017-10-30T19:09:35.648Z,5.60
2017-10-30T19:12:01.963Z,5.50
2017-10-30T19:14:28.311Z,5.40
2017-10-30T19:16:54.631Z,5.40
2017-10-30T19:19:20.979Z,5.50
2017-10-30T19:21:47.307Z,5.50
2017-10-30T19:24:13.674Z,5.60
2017-10-30T19:26:40.686Z,5.50
2017-10-30T19:29:07.050Z,5.50
2017-10-30T19:31:34.119Z,5.30
2017-10-30T19:34:00.457Z,5.40
2017-10-30T19:36:26.812Z,5.40
2017-10-30T19:38:53.151Z,5.40
2017-10-30T19:41:19.490Z,5.30
2017-10-30T19:43:45.840Z,5.30
2017-10-30T19:46:12.915Z,5.30
2017-10-30T19:48:39.235Z,5.20
2017-10-30T19:51:05.585Z,5.30
2017-10-30T19:53:31.947Z,5.20
2017-10-30T19:55:58.275Z,5.10
2017-10-30T19:58:24.614Z,5.10
2017-10-30T20:00:51.002Z,5.10
2017-10-30T20:03:18.078Z,5.10
2017-10-30T20:05:50.550Z,5.10
2017-10-30T20:08:22.970Z,5.10
2017-10-30T20:10:56.220Z,5.20
2017-10-30T20:13:22.586Z,5.10
2017-10-30T20:15:49.666Z,5.10
2017-10-30T20:18:16.759Z,5.00
2017-10-30T20:20:43.088Z,5.10
2017-10-30T20:23:09.443Z,5.00
2017-10-30T20:25:36.548Z,5.00
2017-10-30T20:28:02.879Z,5.00
2017-10-30T20:30:29.235Z,4.90
2017-10-30T20:32:55.578Z,4.90
2017-10-30T20:35:22.650Z,5.00
2017-10-30T20:37:48.979Z,4.90
2017-10-30T20:40:15.332Z,5.00
2017-10-30T20:42:42.663Z,5.10
2017-10-30T20:45:08.998Z,5.10
2017-10-30T20:47:35.372Z,5.10
2017-10-30T20:50:01.710Z,5.10
2017-10-30T20:52:28.045Z,5.10
2017-10-30T20:54:54.402Z,5.00
2017-10-30T20:57:21.497Z,4.90
2017-10-30T20:59:47.813Z,4.90
2017-10-30T21:02:14.154Z,4.90
2017-10-30T21:04:40.508Z,4.90
2017-10-30T21:07:06.899Z,5.00
2017-10-30T21:09:33.250Z,4.90
2017-10-30T21:11:59.607Z,5.00
2017-10-30T21:14:25.949Z,5.00
2017-10-30T21:16:53.011Z,5.00
2017-10-30T21:19:21.034Z,5.00
2017-10-30T21:21:47.351Z,5.00
2017-10-30T21:24:13.703Z,5.10
2017-10-30T21:26:40.034Z,5.10
2017-10-30T21:29:06.375Z,5.10
2017-10-30T21:31:32.706Z,5.10
2017-10-30T21:33:59.057Z,5.10
2017-10-30T21:36:26.121Z,5.20
2017-10-30T21:38:53.482Z,5.20
2017-10-30T21:41:19.827Z,5.10
2017-10-30T21:43:46.178Z,5.10
2017-10-30T21:46:12.542Z,5.10
2017-10-30T21:48:38.866Z,5.00
2017-10-30T21:51:05.966Z,5.00
2017-10-30T21:53:32.299Z,5.00
2017-10-30T21:55:58.632Z,5.10
2017-10-30T21:58:24.963Z,5.20
2017-10-30T22:00:51.307Z,5.20
2017-10-30T22:03:17.672Z,5.20
2017-10-30T22:05:43.982Z,5.30
2017-10-30T22:08:10.373Z,5.20
2017-10-30T22:10:37.754Z,5.10
2017-10-30T22:13:04.079Z,5.00
2017-10-30T22:15:30.438Z,5.00
2017-10-30T22:17:59.631Z,5.00
2017-10-30T22:20:25.978Z,5.00
2017-10-30T22:22:53.039Z,5.10
2017-10-30T22:25:20.130Z,5.10
2017-10-30T22:27:46.454Z,5.10
2017-10-30T22:30:12.799Z,5.10
2017-10-30T22:32:39.144Z,5.10
2017-10-30T22:35:05.486Z,5.10
2017-10-30T22:37:31.806Z,5.10
2017-10-30T22:39:58.138Z,5.10
2017-10-30T22:42:24.486Z,5.10
2017-10-30T22:44:51.588Z,5.00
2017-10-30T22:47:17.910Z,5.00
2017-10-30T22:49:46.066Z,5.00
2017-10-30T22:52:12.378Z,5.00
2017-10-30T22:54:39.490Z,4.90
2017-10-30T22:57:05.862Z,4.80
2017-10-30T22:59:32.190Z,4.80
2017-10-30T23:01:59.268Z,4.60
2017-10-30T23:04:25.612Z,4.50
2017-10-30T23:06:51.963Z,4.50
2017-10-30T23:09:18.287Z,4.40
2017-10-30T23:11:44.626Z,4.30
2017-10-30T23:14:10.980Z,4.20
2017-10-30T23:16:38.050Z,4.10
2017-10-30T23:19:04.416Z,4.10
2017-10-30T23:21:30.746Z,4.00
2017-10-30T23:23:57.075Z,3.90
2017-10-30T23:26:23.416Z,3.80
2017-10-30T23:28:49.754Z,3.70
2017-10-30T23:31:16.091Z,3.50
2017-10-30T23:33:42.419Z,3.30
2017-10-30T23:36:08.759Z,3.30
2017-10-30T23:38:35.091Z,3.20
2017-10-30T23:41:02.155Z,3.10
2017-10-30T23:43:29.242Z,3.10
2017-10-30T23:45:55.582Z,3.00
2017-10-30T23:48:21.908Z,3.00
2017-10-30T23:50:48.246Z,3.00
2017-10-30T23:53:14.589Z,2.90
2017-10-30T23:55:40.917Z,2.80
2017-10-30T23:58:07.275Z,2.70
